Time;durP1;ratioP1;P1;durP2;ratioP2;P2;SDS_P1;SDS_P2;PMS_P1;PMS_P2;Temp;Humidity;BMP_temperature;BMP_pressure;BME280_temperature;BME280_humidity;BME280_pressure;Samples;Min_cycle;Max_cycle;Signal;HPM_P1;HPM_P2
2024/01/18 00:02:09;;;;;;;0.10;0.10;;;;;;;-4.01;79.77;98456.22;4979725;28;20043;-71
2024/01/18 00:04:35;;;;;;;0.00;0.00;;;;;;;-4.11;79.57;98454.84;4991036;28;20063;-71
2024/01/18 00:07:00;;;;;;;0.10;0.10;;;;;;;-4.07;79.26;98471.25;4986424;28;20064;-71
2024/01/18 00:09:26;;;;;;;0.10;0.10;;;;;;;-4.00;78.88;98471.19;4969704;28;20541;-72
2024/01/18 00:11:53;;;;;;;0.10;0.10;;;;;;;-4.00;79.02;98476.50;4975304;28;20030;-70
2024/01/18 00:14:19;;;;;;;0.10;0.10;;;;;;;-4.03;79.37;98483.94;4959879;28;20053;-71
2024/01/18 00:16:44;;;;;;;0.10;0.10;;;;;;;-4.06;79.24;98467.53;4997697;28;20038;-71
2024/01/18 00:19:10;;;;;;;0.10;0.10;;;;;;;-4.08;79.43;98478.44;4957846;28;20026;-71
2024/01/18 00:21:35;;;;;;;0.10;0.10;;;;;;;-4.13;78.82;98488.97;5007964;28;20184;-71
2024/01/18 00:24:00;;;;;;;0.10;0.10;;;;;;;-4.25;78.68;98488.84;4969603;28;20460;-71
2024/01/18 00:26:26;;;;;;;0.10;0.10;;;;;;;-4.31;78.50;98480.88;4987342;28;20029;-70
2024/01/18 00:28:51;;;;;;;0.10;0.10;;;;;;;-4.26;78.77;98499.75;4983804;28;20045;-72
2024/01/18 00:31:17;;;;;;;0.10;0.10;;;;;;;-4.35;78.77;98495.69;4983614;28;20089;-71
2024/01/18 00:33:42;;;;;;;0.10;0.10;;;;;;;-4.29;78.19;98513.50;4981466;28;20034;-70
2024/01/18 00:36:09;;;;;;;0.10;0.10;;;;;;;-4.34;78.09;98518.69;4991781;28;20034;-72
2024/01/18 00:38:34;;;;;;;0.10;0.10;;;;;;;-4.43;77.47;98510.91;4981583;28;20475;-73
2024/01/18 00:41:00;;;;;;;0.10;0.10;;;;;;;-4.38;77.40;98518.28;4964431;28;20092;-71
2024/01/18 00:43:25;;;;;;;0.10;0.10;;;;;;;-4.34;77.63;98534.69;4980120;28;20030;-72
2024/01/18 00:45:51;;;;;;;0.10;0.10;;;;;;;-4.44;77.29;98525.31;4964781;28;20787;-73
2024/01/18 00:48:16;;;;;;;0.10;0.10;;;;;;;-4.35;77.51;98533.03;4970080;28;20034;-73
2024/01/18 00:50:42;;;;;;;0.10;0.10;;;;;;;-4.17;77.78;98541.13;4976029;28;20541;-72
2024/01/18 00:53:07;;;;;;;0.10;0.10;;;;;;;-4.13;77.60;98544.19;5005984;28;20151;-72
2024/01/18 00:55:33;;;;;;;0.10;0.10;;;;;;;-4.11;77.34;98544.81;4971335;28;20025;-72
2024/01/18 00:58:00;;;;;;;0.05;0.05;;;;;;;-4.10;77.00;98552.59;4958898;28;20018;-72
2024/01/18 01:00:26;;;;;;;0.10;0.10;;;;;;;-4.18;77.29;98544.03;4979908;28;20034;-72
2024/01/18 01:02:51;;;;;;;0.00;0.00;;;;;;;-4.00;77.65;98556.63;4966630;28;20039;-73
2024/01/18 01:05:17;;;;;;;0.10;0.10;;;;;;;-4.09;77.05;98548.91;4979031;28;20041;-71
2024/01/18 01:07:42;;;;;;;0.10;0.10;;;;;;;-4.24;77.29;98541.19;4986513;28;20030;-72
2024/01/18 01:10:08;;;;;;;0.10;0.10;;;;;;;-4.38;76.73;98534.28;4955707;28;20105;-73
2024/01/18 01:12:33;;;;;;;0.10;0.10;;;;;;;-4.35;76.32;98546.38;4975859;28;20021;-72
2024/01/18 01:14:59;;;;;;;0.10;0.10;;;;;;;-4.33;76.47;98552.34;4963390;28;20054;-72
2024/01/18 01:17:24;;;;;;;0.00;0.00;;;;;;;-4.38;76.14;98563.63;4989416;28;20048;-72
2024/01/18 01:19:50;;;;;;;0.10;0.10;;;;;;;-4.52;75.81;98562.91;5014578;28;20042;-72
2024/01/18 01:22:15;;;;;;;0.10;0.10;;;;;;;-4.51;75.56;98577.91;4969541;28;20048;-73
2024/01/18 01:24:40;;;;;;;0.10;0.10;;;;;;;-4.51;75.72;98585.06;4993560;28;20033;-73
2024/01/18 01:27:06;;;;;;;0.00;0.00;;;;;;;-4.51;75.54;98593.06;4984821;28;20034;-73
2024/01/18 01:29:32;;;;;;;0.00;0.00;;;;;;;-4.58;75.80;98587.78;5012071;28;20469;-73
2024/01/18 01:31:58;;;;;;;0.10;0.10;;;;;;;-4.63;75.42;98590.25;4972621;28;20033;-72
2024/01/18 01:34:23;;;;;;;0.10;0.10;;;;;;;-4.66;75.68;98596.81;5021283;28;20026;-72
2024/01/18 01:36:50;;;;;;;0.00;0.00;;;;;;;-4.70;75.54;98590.31;4988424;28;20034;-73
2024/01/18 01:39:16;;;;;;;0.10;0.10;;;;;;;-4.68;75.54;98598.09;4975876;28;20015;-72
2024/01/18 01:41:41;;;;;;;0.05;0.05;;;;;;;-4.71;75.73;98603.84;4998705;28;20040;-71
2024/01/18 01:44:07;;;;;;;0.10;0.10;;;;;;;-4.76;75.15;98613.31;4979206;28;20057;-73
2024/01/18 01:46:32;;;;;;;0.10;0.10;;;;;;;-4.78;75.39;98620.69;4994357;28;20032;-73
2024/01/18 01:49:00;;;;;;;0.10;0.10;;;;;;;-4.82;75.33;98613.31;4962632;28;20041;-73
2024/01/18 01:51:34;;;;;;;0.08;0.08;;;;;;;-4.83;75.29;98622.34;4972330;28;20029;-72
2024/01/18 01:54:02;;;;;;;0.10;0.10;;;;;;;-4.87;75.54;98627.28;4996883;28;20026;-72
2024/01/18 01:56:28;;;;;;;0.10;0.10;;;;;;;-4.97;75.84;98621.56;4983245;28;20048;-73
2024/01/18 01:58:53;;;;;;;0.10;0.10;;;;;;;-4.96;75.23;98628.53;4995148;28;20026;-74
2024/01/18 02:01:19;;;;;;;0.10;0.10;;;;;;;-5.00;75.73;98640.66;4969316;28;20857;-74
2024/01/18 02:03:45;;;;;;;0.10;0.10;;;;;;;-5.04;75.21;98636.75;4967645;28;20503;-73
2024/01/18 02:06:10;;;;;;;0.10;0.10;;;;;;;-5.10;75.50;98644.53;4976666;28;20046;-74
2024/01/18 02:08:36;;;;;;;0.10;0.10;;;;;;;-5.17;75.43;98638.44;4978590;28;20650;-73
2024/01/18 02:11:03;;;;;;;0.10;0.10;;;;;;;-5.16;75.71;98653.38;4987015;28;20026;-73
2024/01/18 02:13:29;;;;;;;0.08;0.08;;;;;;;-5.19;75.45;98656.47;4963730;28;20026;-74
2024/01/18 02:15:55;;;;;;;0.10;0.10;;;;;;;-5.20;75.89;98665.47;5002628;28;20070;-74
2024/01/18 02:18:21;;;;;;;0.10;0.10;;;;;;;-5.24;76.38;98658.94;4971319;28;20520;-74
2024/01/18 02:20:46;;;;;;;0.10;0.10;;;;;;;-5.26;76.05;98667.16;4976339;28;20134;-71
2024/01/18 02:23:12;;;;;;;0.00;0.00;;;;;;;-5.29;75.77;98672.06;4979646;28;20184;-73
2024/01/18 02:25:38;;;;;;;0.10;0.10;;;;;;;-5.28;76.42;98674.50;4980579;28;20022;-73
2024/01/18 02:28:03;;;;;;;0.10;0.10;;;;;;;-5.32;76.14;98678.59;4966938;28;20034;-71
2024/01/18 02:30:29;;;;;;;0.10;0.10;;;;;;;-5.30;76.40;98694.38;4978802;28;20947;-73
2024/01/18 02:32:54;;;;;;;0.10;0.10;;;;;;;-5.37;76.14;98674.91;4991288;28;20045;-74
2024/01/18 02:35:20;;;;;;;0.10;0.10;;;;;;;-5.43;76.47;98682.72;4995714;28;20449;-73
2024/01/18 02:37:46;;;;;;;0.10;0.10;;;;;;;-5.40;76.68;98701.97;4976809;28;20457;-73
2024/01/18 02:40:12;;;;;;;0.10;0.10;;;;;;;-5.45;76.57;98706.09;4993083;28;20085;-73
2024/01/18 02:42:37;;;;;;;0.10;0.10;;;;;;;-5.50;76.57;98707.72;4958757;28;20036;-72
2024/01/18 02:45:03;;;;;;;0.10;0.10;;;;;;;-5.66;76.82;98687.63;4986935;28;20030;-72
2024/01/18 02:47:30;;;;;;;0.10;0.10;;;;;;;-5.55;76.82;98710.16;4985295;28;21626;-72
2024/01/18 02:49:58;;;;;;;0.00;0.00;;;;;;;-5.56;76.28;98709.34;4982102;28;20042;-72
2024/01/18 02:52:24;;;;;;;0.10;0.10;;;;;;;-5.56;76.42;98717.34;4965033;28;20386;-72
2024/01/18 02:54:49;;;;;;;0.10;0.10;;;;;;;-5.61;76.55;98711.78;4978550;28;20025;-75
2024/01/18 02:57:15;;;;;;;0.10;0.10;;;;;;;-5.63;76.82;98713.84;4996589;28;20084;-75
2024/01/18 02:59:40;;;;;;;0.10;0.10;;;;;;;-5.64;76.49;98722.84;4970313;28;20034;-74
2024/01/18 03:02:05;;;;;;;0.10;0.10;;;;;;;-5.65;76.65;98730.03;4990167;28;20026;-75
2024/01/18 03:04:31;;;;;;;0.10;0.10;;;;;;;-5.69;76.34;98730.66;4990309;28;20053;-74
2024/01/18 03:06:57;;;;;;;0.10;0.10;;;;;;;-5.71;76.48;98738.00;4951690;28;20025;-75
2024/01/18 03:09:22;;;;;;;0.10;0.10;;;;;;;-5.72;76.86;98742.53;4999883;28;20053;-74
2024/01/18 03:11:48;;;;;;;0.10;0.10;;;;;;;-5.84;77.08;98723.66;5003240;28;20015;-74
2024/01/18 03:14:13;;;;;;;0.10;0.10;;;;;;;-5.72;76.98;98747.00;4987488;28;20508;-73
2024/01/18 03:16:42;;;;;;;0.10;0.10;;;;;;;-5.71;76.91;98757.47;4983258;28;20049;-76
2024/01/18 03:19:10;;;;;;;0.10;0.10;;;;;;;-5.72;77.16;98752.34;4955971;28;20045;-75
2024/01/18 03:21:35;;;;;;;0.10;0.10;;;;;;;-5.78;76.76;98749.47;4981944;28;20105;-75
2024/01/18 03:24:01;;;;;;;0.10;0.10;;;;;;;-5.70;76.96;98768.94;4997677;28;20102;-75
2024/01/18 03:26:26;;;;;;;0.10;0.10;;;;;;;-5.70;76.71;98766.28;4996021;28;20061;-75
2024/01/18 03:28:52;;;;;;;0.10;0.10;;;;;;;-5.69;77.33;98762.59;4988021;28;20037;-75
2024/01/18 03:31:17;;;;;;;0.10;0.10;;;;;;;-5.70;77.34;98771.63;4977276;28;20117;-75
2024/01/18 03:33:42;;;;;;;0.10;0.10;;;;;;;-5.71;77.40;98764.63;4986290;28;20125;-75
2024/01/18 03:36:10;;;;;;;0.10;0.10;;;;;;;-5.73;77.45;98772.81;4978686;28;20132;-74
2024/01/18 03:38:35;;;;;;;0.10;0.10;;;;;;;-5.72;77.71;98778.97;4982590;28;20551;-75
2024/01/18 03:41:01;;;;;;;0.10;0.10;;;;;;;-5.88;77.23;98766.84;4988227;28;20044;-76
2024/01/18 03:43:26;;;;;;;0.10;0.10;;;;;;;-5.86;77.45;98778.94;4995009;28;20767;-75
2024/01/18 03:45:51;;;;;;;0.10;0.10;;;;;;;-5.93;77.21;98772.75;4963463;28;20042;-73
2024/01/18 03:48:17;;;;;;;0.10;0.10;;;;;;;-5.88;77.71;98786.31;4950536;28;20030;-76
2024/01/18 03:50:42;;;;;;;0.10;0.10;;;;;;;-5.91;77.08;98791.19;4957999;28;20082;-74
2024/01/18 03:53:08;;;;;;;0.10;0.10;;;;;;;-5.94;77.35;98781.78;4960252;28;20033;-75
2024/01/18 03:55:33;;;;;;;0.10;0.10;;;;;;;-5.92;77.36;98789.56;4977126;28;20061;-76
2024/01/18 03:58:00;;;;;;;0.10;0.10;;;;;;;-5.93;77.75;98794.06;4971052;28;20023;-75
2024/01/18 04:00:25;;;;;;;0.10;0.10;;;;;;;-5.98;77.14;98797.34;4960355;28;20072;-74
2024/01/18 04:02:52;;;;;;;0.10;0.10;;;;;;;-6.01;77.34;98795.09;4966502;28;20034;-75
2024/01/18 04:05:17;;;;;;;0.10;0.10;;;;;;;-5.99;77.12;98810.84;4982552;28;20078;-75
2024/01/18 04:07:43;;;;;;;0.10;0.10;;;;;;;-6.04;77.43;98802.66;4960016;28;20061;-75
2024/01/18 04:10:09;;;;;;;0.10;0.10;;;;;;;-6.06;77.35;98804.69;4972385;28;20019;-75
2024/01/18 04:12:36;;;;;;;0.10;0.10;;;;;;;-6.18;77.41;98804.41;4976460;28;20030;-75
2024/01/18 04:15:02;;;;;;;0.10;0.10;;;;;;;-6.17;77.26;98822.03;4927390;28;1737068;-75
2024/01/18 04:17:27;;;;;;;0.10;0.10;;;;;;;-6.19;77.72;98816.06;4995193;28;20691;-75
2024/01/18 04:19:53;;;;;;;0.10;0.10;;;;;;;-6.16;77.67;98827.16;4989993;28;20080;-75
2024/01/18 04:22:18;;;;;;;0.10;0.10;;;;;;;-6.25;77.94;98828.34;4980905;28;20058;-74
2024/01/18 04:24:45;;;;;;;0.00;0.00;;;;;;;-6.24;77.73;98829.97;4973659;28;20092;-76
2024/01/18 04:27:11;;;;;;;0.10;0.10;;;;;;;-6.26;78.03;98834.69;4960762;28;20049;-75
2024/01/18 04:29:36;;;;;;;0.10;0.10;;;;;;;-6.24;78.10;98845.94;5001177;28;20193;-74
2024/01/18 04:32:01;;;;;;;0.00;0.00;;;;;;;-6.23;78.20;98847.59;4967592;28;20065;-73
2024/01/18 04:34:27;;;;;;;0.10;0.10;;;;;;;-6.19;78.12;98854.16;4970809;28;20360;-73
2024/01/18 04:36:52;;;;;;;0.10;0.10;;;;;;;-6.20;78.36;98841.88;4989354;28;20034;-73
2024/01/18 04:39:18;;;;;;;0.10;0.10;;;;;;;-6.12;78.36;98853.38;4988583;28;20068;-75
2024/01/18 04:41:43;;;;;;;0.10;0.10;;;;;;;-6.18;78.27;98863.78;4967887;28;20033;-76
2024/01/18 04:44:08;;;;;;;0.10;0.10;;;;;;;-6.36;77.93;98858.16;4965312;28;20107;-75
2024/01/18 04:46:34;;;;;;;0.10;0.10;;;;;;;-6.32;78.67;98876.19;5004017;28;20065;-75
2024/01/18 04:48:59;;;;;;;0.10;0.10;;;;;;;-6.40;78.67;98862.22;4985915;28;20065;-75
2024/01/18 04:51:25;;;;;;;0.10;0.10;;;;;;;-6.21;78.23;98893.44;4964574;28;20168;-75
2024/01/18 04:53:50;;;;;;;0.10;0.10;;;;;;;-6.21;78.17;98882.78;5001462;28;20037;-76
2024/01/18 04:56:16;;;;;;;0.10;0.10;;;;;;;-6.19;78.08;98874.63;4987897;28;20101;-76
2024/01/18 04:58:42;;;;;;;0.10;0.10;;;;;;;-6.23;78.41;98871.53;4965017;28;20018;-76
2024/01/18 05:01:08;;;;;;;0.10;0.10;;;;;;;-6.23;78.27;98881.38;4975547;28;20027;-75
2024/01/18 05:03:33;;;;;;;0.10;0.10;;;;;;;-6.10;78.76;98904.56;4990950;28;20060;-75
2024/01/18 05:05:59;;;;;;;0.10;0.10;;;;;;;-6.09;79.09;98898.22;4994065;28;20121;-75
2024/01/18 05:08:25;;;;;;;0.10;0.10;;;;;;;-6.01;79.09;98898.09;5006323;28;20033;-75
2024/01/18 05:10:50;;;;;;;0.10;0.10;;;;;;;-6.01;78.81;98903.41;4958444;28;20026;-74
2024/01/18 05:13:16;;;;;;;0.00;0.00;;;;;;;-6.00;79.10;98923.66;4977619;28;20080;-75
2024/01/18 05:15:41;;;;;;;0.10;0.10;;;;;;;-6.07;79.33;98906.84;5014393;28;20050;-74
2024/01/18 05:18:07;;;;;;;0.10;0.10;;;;;;;-6.09;80.13;98917.66;4991726;28;20042;-76
2024/01/18 05:20:33;;;;;;;0.10;0.10;;;;;;;-6.16;79.62;98917.66;4964708;28;20026;-75
2024/01/18 05:22:59;;;;;;;0.10;0.10;;;;;;;-6.19;79.86;98923.34;4986312;28;20544;-75
2024/01/18 05:25:24;;;;;;;0.10;0.10;;;;;;;-6.16;80.43;98930.94;4991528;28;20030;-75
2024/01/18 05:27:49;;;;;;;0.00;0.00;;;;;;;-6.18;80.69;98927.63;4972719;28;20107;-75
2024/01/18 05:30:15;;;;;;;0.10;0.10;;;;;;;-6.21;81.03;98941.34;4998558;28;20490;-74
2024/01/18 05:32:41;;;;;;;0.10;0.10;;;;;;;-6.25;81.35;98939.25;4982294;28;20026;-73
2024/01/18 05:35:06;;;;;;;0.10;0.10;;;;;;;-6.23;81.21;98943.38;4969782;28;20068;-74
2024/01/18 05:37:32;;;;;;;0.10;0.10;;;;;;;-6.33;81.52;98942.91;4973791;28;20018;-74
2024/01/18 05:39:58;;;;;;;0.00;0.00;;;;;;;-6.30;81.65;98958.47;4982100;28;20065;-76
2024/01/18 05:42:23;;;;;;;0.10;0.10;;;;;;;-6.36;81.53;98949.41;4982296;28;20042;-75
2024/01/18 05:44:50;;;;;;;0.10;0.10;;;;;;;-6.33;81.74;98966.84;4974025;28;20026;-75
2024/01/18 05:47:16;;;;;;;0.10;0.10;;;;;;;-6.36;82.26;98965.38;4996891;28;20026;-74
2024/01/18 05:49:41;;;;;;;0.10;0.10;;;;;;;-6.30;81.94;98977.09;4953340;28;20048;-75
2024/01/18 05:52:07;;;;;;;0.10;0.10;;;;;;;-6.31;82.64;98978.09;4971343;28;20026;-74
2024/01/18 05:54:33;;;;;;;0.10;0.10;;;;;;;-6.39;82.77;98972.94;5005081;28;20045;-74
2024/01/18 05:57:00;;;;;;;0.10;0.10;;;;;;;-6.38;82.66;98985.19;4979383;28;20061;-74
2024/01/18 05:59:25;;;;;;;0.10;0.10;;;;;;;-6.41;82.23;98985.59;4996558;28;20051;-74
2024/01/18 06:01:51;;;;;;;0.10;0.10;;;;;;;-6.33;82.54;98980.16;4994451;28;20034;-73
2024/01/18 06:04:16;;;;;;;0.10;0.10;;;;;;;-6.29;82.40;98978.75;4994844;28;20040;-75
2024/01/18 06:06:42;;;;;;;0.10;0.10;;;;;;;-6.31;82.71;98978.09;4991203;28;20093;-75
2024/01/18 06:09:09;;;;;;;0.10;0.10;;;;;;;-6.25;83.48;98987.16;4971134;28;20002;-74
2024/01/18 06:11:34;;;;;;;0.10;0.10;;;;;;;-6.31;83.58;98991.41;5013063;28;20037;-74
2024/01/18 06:13:59;;;;;;;0.10;0.10;;;;;;;-6.33;83.87;98993.44;4962661;28;20034;-74
2024/01/18 06:16:25;;;;;;;0.00;0.00;;;;;;;-6.36;83.35;98996.50;4991812;28;20407;-75
2024/01/18 06:18:51;;;;;;;0.10;0.10;;;;;;;-6.43;83.39;98991.09;4960807;28;20045;-75
2024/01/18 06:21:17;;;;;;;0.10;0.10;;;;;;;-6.32;83.63;99013.72;5012795;28;20026;-75
2024/01/18 06:23:43;;;;;;;0.10;0.10;;;;;;;-6.29;83.48;99013.34;4976958;28;20447;-74
2024/01/18 06:26:11;;;;;;;0.00;0.00;;;;;;;-6.25;83.88;99019.09;4982649;28;20805;-75
2024/01/18 06:28:38;;;;;;;0.10;0.10;;;;;;;-6.29;84.22;99034.63;4975364;28;20042;-75
2024/01/18 06:31:04;;;;;;;0.10;0.10;;;;;;;-6.38;84.34;99030.44;4980947;28;20133;-75
2024/01/18 06:33:31;;;;;;;0.10;0.10;;;;;;;-6.34;84.31;99034.38;4989845;28;20042;-78
2024/01/18 06:35:56;;;;;;;0.10;0.10;;;;;;;-6.49;84.25;99021.94;4962014;28;20037;-78
2024/01/18 06:38:24;;;;;;;0.10;0.10;;;;;;;-6.45;84.45;99029.53;5009989;28;20018;-78
2024/01/18 06:40:49;;;;;;;0.00;0.00;;;;;;;-6.40;83.97;99043.91;4988450;28;20030;-79
2024/01/18 06:43:15;;;;;;;0.10;0.10;;;;;;;-6.30;84.78;99046.28;4970538;28;20014;-74
2024/01/18 06:45:41;;;;;;;0.10;0.10;;;;;;;-6.35;83.97;99051.31;4998027;28;20049;-75
2024/01/18 06:48:07;;;;;;;0.10;0.10;;;;;;;-6.43;84.81;99048.81;4954650;28;20428;-75
2024/01/18 06:50:35;;;;;;;0.10;0.10;;;;;;;-6.45;83.81;99050.81;4987700;28;20030;-75
2024/01/18 06:53:03;;;;;;;0.10;0.10;;;;;;;-6.38;84.71;99073.00;4989355;28;20030;-74
2024/01/18 06:55:29;;;;;;;0.10;0.10;;;;;;;-6.33;84.27;99078.59;4981032;28;20022;-75
2024/01/18 06:57:54;;;;;;;0.10;0.10;;;;;;;-6.36;84.15;99074.47;4980293;28;20768;-76
2024/01/18 07:00:23;;;;;;;0.10;0.10;;;;;;;-6.31;83.84;99073.88;4988339;28;20483;-76
2024/01/18 07:02:50;;;;;;;0.10;0.10;;;;;;;-6.24;83.79;99085.41;4988007;28;20412;-74
2024/01/18 07:05:19;;;;;;;0.10;0.10;;;;;;;-6.19;83.69;99091.00;4992418;28;20038;-76
2024/01/18 07:07:47;;;;;;;0.10;0.10;;;;;;;-6.21;83.90;99085.03;4996173;28;20035;-74
2024/01/18 07:10:13;;;;;;;0.10;0.10;;;;;;;-6.19;83.62;99088.34;5011947;28;20026;-74
2024/01/18 07:12:38;;;;;;;0.00;0.00;;;;;;;-6.23;83.90;99089.75;4984502;28;20073;-79
2024/01/18 07:15:06;;;;;;;0.10;0.10;;;;;;;-6.26;83.36;99092.78;5002013;28;20480;-78
2024/01/18 07:17:32;;;;;;;0.00;0.00;;;;;;;-6.35;83.73;99093.91;4994153;28;20032;-80
2024/01/18 07:20:00;;;;;;;0.10;0.10;;;;;;;-6.24;83.86;99116.53;4974972;28;20031;-72
2024/01/18 07:22:29;;;;;;;0.10;0.10;;;;;;;-6.29;83.36;99103.81;4998517;28;20033;-72
2024/01/18 07:25:09;;;;;;;;;;;;;;;;;;;;;
2024/01/18 07:37:37;;;;;;;0.10;0.10;;;;;;;-6.23;83.84;99095.06;4968080;28;20049;-76
2024/01/18 07:41:03;;;;;;;;;;;;;;;;;;;;;
2024/01/18 07:45:17;;;;;;;;;;;;;;;;;;;;;
2024/01/18 07:47:21;;;;;;;0.10;0.10;;;;;;;-6.00;84.55;99165.91;4972376;28;20495;-74
2024/01/18 07:49:47;;;;;;;0.10;0.10;;;;;;;-5.96;84.79;99175.13;4999960;28;20031;-75
2024/01/18 07:52:13;;;;;;;0.10;0.10;;;;;;;-6.05;84.90;99163.81;4976506;28;20573;-74
2024/01/18 07:58:22;;;;;;;0.10;0.10;;;;;;;-6.06;85.03;99170.16;4982363;28;20041;-77
2024/01/18 08:00:48;;;;;;;0.10;0.10;;;;;;;-6.02;84.83;99183.91;4911050;29;20401;-79
2024/01/18 08:03:13;;;;;;;0.10;0.10;;;;;;;-6.12;85.08;99167.44;4984061;28;20034;-77
2024/01/18 08:05:39;;;;;;;0.10;0.10;;;;;;;-6.11;84.91;99166.44;4984943;28;20033;-79
2024/01/18 08:08:04;;;;;;;0.10;0.10;;;;;;;-6.00;84.70;99189.84;4973866;28;20384;-79
2024/01/18 08:10:30;;;;;;;0.10;0.10;;;;;;;-5.98;84.69;99186.00;4989154;28;20026;-79
2024/01/18 08:12:55;;;;;;;0.10;0.10;;;;;;;-5.77;85.01;99210.97;4956166;28;20018;-78
2024/01/18 08:15:21;;;;;;;0.10;0.10;;;;;;;-5.83;85.29;99209.88;4955598;28;20057;-81
2024/01/18 08:17:47;;;;;;;0.10;0.10;;;;;;;-5.73;85.25;99203.44;4995612;28;20057;-80
2024/01/18 08:20:15;;;;;;;0.10;0.10;;;;;;;-5.65;85.02;99216.59;4976943;28;20022;-78
2024/01/18 08:22:42;;;;;;;0.10;0.10;;;;;;;-5.55;84.80;99237.59;5005084;28;20026;-78
2024/01/18 08:25:10;;;;;;;0.10;0.10;;;;;;;-5.40;84.87;99261.50;5002709;28;20105;-78
2024/01/18 08:27:37;;;;;;;0.10;0.10;;;;;;;-5.26;84.59;99273.94;4970730;28;20065;-79
2024/01/18 08:30:05;;;;;;;0.10;0.10;;;;;;;-5.17;84.83;99278.16;4987545;28;20026;-78
2024/01/18 08:32:34;;;;;;;0.10;0.10;;;;;;;-5.22;84.90;99251.22;4971076;28;20133;-79
2024/01/18 08:35:07;;;;;;;0.10;0.10;;;;;;;-5.13;84.39;99255.41;4987148;28;20446;-78
2024/01/18 08:37:37;;;;;;;0.00;0.00;;;;;;;-4.91;84.40;99288.22;4992891;28;20585;-79
2024/01/18 08:40:04;;;;;;;0.10;0.10;;;;;;;-5.02;84.18;99261.22;4985559;28;20028;-79
2024/01/18 08:42:30;;;;;;;0.10;0.10;;;;;;;-4.75;84.29;99305.75;4967286;28;20053;-77
2024/01/18 08:44:56;;;;;;;0.10;0.10;;;;;;;-4.86;83.94;99274.28;4983391;28;20468;-78
2024/01/18 08:47:23;;;;;;;0.10;0.10;;;;;;;-4.61;83.36;99300.53;4989076;28;20032;-78
2024/01/18 08:49:52;;;;;;;0.10;0.10;;;;;;;-4.46;83.18;99314.56;4993958;28;20022;-79
2024/01/18 08:52:19;;;;;;;0.10;0.10;;;;;;;-4.53;83.02;99292.34;4995319;28;20487;-78
2024/01/18 08:54:45;;;;;;;0.10;0.10;;;;;;;-4.55;82.31;99283.75;4986204;28;20030;-78
2024/01/18 08:57:10;;;;;;;0.00;0.00;;;;;;;-4.51;82.50;99290.34;4995324;28;20554;-78
2024/01/18 08:59:36;;;;;;;0.10;0.10;;;;;;;-4.25;82.34;99332.38;4978957;28;20093;-77
2024/01/18 09:02:01;;;;;;;0.10;0.10;;;;;;;-4.21;82.29;99324.78;4966895;28;20018;-79
2024/01/18 09:04:34;;;;;;;0.00;0.00;;;;;;;-4.16;82.32;99333.06;4978288;28;20022;-77
2024/01/18 09:07:00;;;;;;;0.10;0.10;;;;;;;-4.07;82.16;99337.19;5002374;28;20026;-78
2024/01/18 09:09:25;;;;;;;0.00;0.00;;;;;;;-4.22;82.44;99299.94;4987811;28;20084;-77
2024/01/18 09:11:53;;;;;;;0.10;0.10;;;;;;;-3.94;81.61;99327.59;4983470;28;20038;-78
2024/01/18 09:14:18;;;;;;;0.10;0.10;;;;;;;-3.72;81.38;99355.84;4976935;28;20061;-78
2024/01/18 09:20:04;;;;;;;0.10;0.10;;;;;;;-3.63;81.34;99342.34;4954969;28;20671;-80
2024/01/18 09:22:29;;;;;;;0.10;0.10;;;;;;;-3.59;81.61;99340.88;4995385;28;20019;-79
2024/01/18 09:28:00;;;;;;;0.00;0.00;;;;;;;-3.17;80.89;99373.72;4927431;29;20079;-79
2024/01/18 09:30:26;;;;;;;0.10;0.10;;;;;;;-3.03;80.45;99372.72;4976061;28;20046;-78
2024/01/18 09:32:51;;;;;;;0.10;0.10;;;;;;;-2.07;81.03;99378.69;4984442;28;20027;-79
2024/01/18 09:35:21;;;;;;;0.10;0.10;;;;;;;1.32;77.83;99371.66;4960177;28;20041;-78
2024/01/18 09:37:47;;;;;;;0.10;0.10;;;;;;;5.37;59.53;99387.78;5003811;28;20094;-79
2024/01/18 09:40:12;;;;;;;0.10;0.10;;;;;;;8.40;50.24;99400.78;4972253;28;20117;-78
2024/01/18 09:42:47;;;;;;;0.10;0.10;;;;;;;10.74;43.26;99389.53;4993128;28;20037;-78
2024/01/18 09:45:14;;;;;;;0.10;0.10;;;;;;;12.57;38.63;99404.47;5005841;28;20010;-80
2024/01/18 09:47:44;;;;;;;0.10;0.10;;;;;;;13.03;35.03;99402.75;4987461;28;20083;-79
2024/01/18 09:50:10;;;;;;;0.10;0.10;;;;;;;13.26;33.96;99411.84;5004720;28;20022;-79
2024/01/18 09:52:36;;;;;;;0.00;0.00;;;;;;;13.65;33.39;99412.38;5004509;28;20061;-80
2024/01/18 09:55:01;;;;;;;0.00;0.00;;;;;;;14.63;32.80;99418.94;4987849;28;20022;-80
2024/01/18 09:57:32;;;;;;;0.00;0.00;;;;;;;15.56;30.80;99414.28;4996988;28;20033;-81
2024/01/18 10:00:00;;;;;;;0.10;0.10;;;;;;;16.89;29.92;99422.78;4990284;28;21142;-80
2024/01/18 10:02:28;;;;;;;0.00;0.00;;;;;;;17.89;28.09;99415.88;4980299;28;20109;-79
2024/01/18 10:05:00;;;;;;;0.00;0.00;;;;;;;17.63;26.37;99425.19;4991947;28;20030;-79
2024/01/18 10:07:27;;;;;;;0.00;0.00;;;;;;;18.09;27.29;99430.84;5008908;28;20018;-80
2024/01/18 10:09:53;;;;;;;0.00;0.00;;;;;;;19.25;25.99;99443.81;4979045;28;20432;-78
2024/01/18 10:12:18;;;;;;;0.00;0.00;;;;;;;19.58;24.59;99440.84;4965263;28;20103;-78
2024/01/18 10:14:45;;;;;;;0.00;0.00;;;;;;;19.71;23.77;99456.28;5004350;28;20093;-79
2024/01/18 10:17:21;;;;;;;0.10;0.10;;;;;;;20.34;24.02;99454.06;4958544;28;20033;-78
2024/01/18 10:19:50;;;;;;;0.00;0.00;;;;;;;21.31;24.33;99462.06;4997637;28;20026;-80
2024/01/18 10:22:16;;;;;;;0.00;0.00;;;;;;;21.94;21.20;99471.41;4988639;28;20022;-78
2024/01/18 10:24:42;;;;;;;0.10;0.10;;;;;;;22.61;22.11;99487.03;4988890;28;20029;-78
2024/01/18 10:27:07;;;;;;;0.00;0.00;;;;;;;23.47;21.00;99480.09;4992229;28;20789;-77
2024/01/18 10:29:36;;;;;;;0.00;0.00;;;;;;;23.46;21.07;99498.00;4994474;28;20495;-77
2024/01/18 10:32:03;;;;;;;0.05;0.05;;;;;;;23.35;20.62;99488.69;4958857;28;20038;-78
2024/01/18 10:34:33;;;;;;;0.00;0.00;;;;;;;23.62;20.07;99497.06;4991982;28;20029;-78
2024/01/18 10:37:01;;;;;;;0.00;0.00;;;;;;;24.09;19.63;99495.69;4974439;28;20046;-78
2024/01/18 10:39:26;;;;;;;0.00;0.00;;;;;;;24.75;19.54;99495.25;4962592;28;20037;-78
2024/01/18 10:41:54;;;;;;;0.00;0.00;;;;;;;24.97;19.03;99515.00;4949955;28;20393;-79
2024/01/18 10:44:20;;;;;;;0.00;0.00;;;;;;;25.71;19.49;99513.16;4979844;28;20057;-77
2024/01/18 10:46:49;;;;;;;0.00;0.00;;;;;;;26.40;18.35;99514.28;4960884;28;20034;-79
2024/01/18 10:49:16;;;;;;;0.00;0.00;;;;;;;27.03;17.23;99528.03;4956986;28;20010;-79
2024/01/18 10:51:42;;;;;;;0.00;0.00;;;;;;;26.19;17.47;99521.41;4971758;28;20034;-79
2024/01/18 10:54:09;;;;;;;0.00;0.00;;;;;;;26.76;17.49;99528.41;4960964;28;20033;-78
2024/01/18 10:56:34;;;;;;;0.00;0.00;;;;;;;27.44;16.65;99525.66;4981869;28;20034;-76
2024/01/18 10:59:00;;;;;;;0.00;0.00;;;;;;;27.25;16.83;99532.47;4965762;28;20334;-78
2024/01/18 11:01:26;;;;;;;0.00;0.00;;;;;;;27.22;16.92;99535.25;4993157;28;20026;-80
2024/01/18 11:03:52;;;;;;;0.00;0.00;;;;;;;27.15;17.11;99542.47;4979383;28;20038;-79
2024/01/18 11:06:18;;;;;;;0.00;0.00;;;;;;;27.94;16.68;99550.00;4991348;28;20018;-79
2024/01/18 11:08:48;;;;;;;0.00;0.00;;;;;;;28.62;15.38;99560.25;4989094;28;20101;-77
2024/01/18 11:11:14;;;;;;;0.00;0.00;;;;;;;28.27;15.85;99553.56;5005949;28;20001;-78
2024/01/18 11:13:40;;;;;;;0.00;0.00;;;;;;;28.46;16.24;99562.69;4989030;28;20084;-79
2024/01/18 11:16:09;;;;;;;0.00;0.00;;;;;;;29.74;15.67;99567.81;4994356;28;20054;-78
2024/01/18 11:18:35;;;;;;;0.00;0.00;;;;;;;30.11;15.07;99564.22;4989840;28;22223;-78
2024/01/18 11:21:04;;;;;;;0.00;0.00;;;;;;;29.96;14.87;99585.31;4982584;28;20154;-79
2024/01/18 11:23:34;;;;;;;0.00;0.00;;;;;;;30.46;14.61;99579.13;4990299;28;20017;-79
2024/01/18 11:25:59;;;;;;;0.00;0.00;;;;;;;31.85;15.09;99574.56;4969365;28;20053;-79
2024/01/18 11:28:26;;;;;;;0.00;0.00;;;;;;;32.88;14.66;99575.69;4991591;28;20026;-78
2024/01/18 11:30:52;;;;;;;0.00;0.00;;;;;;;33.10;12.42;99574.38;4979054;28;20032;-78
2024/01/18 11:33:18;;;;;;;0.00;0.00;;;;;;;32.07;13.71;99585.44;4989371;28;20021;-79
2024/01/18 11:35:44;;;;;;;0.00;0.00;;;;;;;32.19;13.52;99589.69;4977569;28;20040;-78
2024/01/18 11:38:18;;;;;;;0.00;0.00;;;;;;;32.24;12.61;99594.03;4982683;28;20066;-77
2024/01/18 11:40:44;;;;;;;0.00;0.00;;;;;;;31.40;13.35;99594.69;4988457;28;20522;-79
2024/01/18 11:43:11;;;;;;;0.00;0.00;;;;;;;31.74;13.54;99599.38;4962907;28;20030;-77
2024/01/18 11:45:36;;;;;;;0.00;0.00;;;;;;;31.42;13.35;99597.09;4996895;28;20088;-78
2024/01/18 11:48:01;;;;;;;0.00;0.00;;;;;;;32.04;12.89;99606.09;4972006;28;20420;-78
2024/01/18 11:50:27;;;;;;;0.00;0.00;;;;;;;30.93;12.49;99600.25;4980960;28;20071;-79
2024/01/18 11:52:52;;;;;;;0.00;0.00;;;;;;;30.69;13.31;99607.84;4959684;28;20465;-79
2024/01/18 11:55:23;;;;;;;0.00;0.00;;;;;;;32.05;13.95;99593.56;4954539;28;20096;-79